createdAt,value
2022-11-02T00:00:42.629Z,91.84
2022-11-02T00:01:37.779Z,91.88
2022-11-02T00:02:32.937Z,91.85
2022-11-02T00:03:27.931Z,91.61
2022-11-02T00:04:23.064Z,91.43
2022-11-02T00:05:18.092Z,91.34
2022-11-02T00:06:13.340Z,91.26
2022-11-02T00:07:08.428Z,91.20
2022-11-02T00:08:03.672Z,91.30
2022-11-02T00:08:58.567Z,91.51
2022-11-02T00:09:53.588Z,91.53
2022-11-02T00:10:48.707Z,91.57
2022-11-02T00:11:43.932Z,91.57
2022-11-02T00:12:38.957Z,91.54
2022-11-02T00:13:34.819Z,91.58
2022-11-02T00:14:29.965Z,91.73
2022-11-02T00:15:25.125Z,91.94
2022-11-02T00:16:21.015Z,92.16
2022-11-02T00:17:16.321Z,92.17
2022-11-02T00:18:12.151Z,92.15
2022-11-02T00:19:07.301Z,92.18
2022-11-02T00:20:02.617Z,92.29
2022-11-02T00:20:58.352Z,92.65
2022-11-02T00:21:53.665Z,92.62
2022-11-02T00:22:48.981Z,92.55
2022-11-02T00:23:45.243Z,92.63
2022-11-02T00:24:40.532Z,92.80
2022-11-02T00:25:36.405Z,92.81
2022-11-02T00:26:31.663Z,92.88
2022-11-02T00:27:26.950Z,92.98
2022-11-02T00:28:22.709Z,92.96
2022-11-02T00:29:17.883Z,92.91
2022-11-02T00:30:13.745Z,92.86
2022-11-02T00:31:08.993Z,92.91
2022-11-02T00:32:04.420Z,93.00
2022-11-02T00:33:00.575Z,93.07
2022-11-02T00:33:55.418Z,93.12
2022-11-02T00:34:50.587Z,93.20
2022-11-02T00:35:47.106Z,93.35
2022-11-02T00:36:42.465Z,93.43
2022-11-02T00:37:38.164Z,93.55
2022-11-02T00:38:33.659Z,93.60
2022-11-02T00:39:28.506Z,93.51
2022-11-02T00:40:24.245Z,93.48
2022-11-02T00:41:19.421Z,93.54
2022-11-02T00:42:15.261Z,93.61
2022-11-02T00:43:10.548Z,93.69
2022-11-02T00:44:05.815Z,93.69
2022-11-02T00:45:01.516Z,93.81
2022-11-02T00:45:56.696Z,93.85
2022-11-02T00:46:51.949Z,93.82
2022-11-02T00:47:48.348Z,93.80
2022-11-02T00:48:43.576Z,93.49
2022-11-02T00:49:39.280Z,93.19
2022-11-02T00:50:34.497Z,92.97
2022-11-02T00:51:29.639Z,92.69
2022-11-02T00:52:25.507Z,92.60
2022-11-02T00:53:20.840Z,92.52
2022-11-02T00:54:16.684Z,92.51
2022-11-02T00:55:11.691Z,92.46
2022-11-02T00:56:06.989Z,92.39
2022-11-02T00:57:02.848Z,92.39
2022-11-02T00:57:58.196Z,92.50
2022-11-02T00:58:53.447Z,92.63
2022-11-02T00:59:49.856Z,92.87
2022-11-02T01:00:45.157Z,93.13
2022-11-02T01:01:41.152Z,93.32
2022-11-02T01:02:36.463Z,93.40
2022-11-02T01:03:31.565Z,93.44
2022-11-02T01:04:27.316Z,93.29
2022-11-02T01:05:22.606Z,92.98
2022-11-02T01:06:17.734Z,92.62
2022-11-02T01:07:12.964Z,92.32
2022-11-02T01:08:08.965Z,92.00
2022-11-02T01:09:04.003Z,91.77
2022-11-02T01:09:59.244Z,91.54
2022-11-02T01:10:55.632Z,91.21
2022-11-02T01:11:50.742Z,91.00
2022-11-02T01:12:46.604Z,90.79
2022-11-02T01:13:41.665Z,90.65
2022-11-02T01:14:37.031Z,90.54
2022-11-02T01:15:32.771Z,90.41
2022-11-02T01:16:27.873Z,90.32
2022-11-02T01:17:23.690Z,90.19
2022-11-02T01:18:18.778Z,90.02
2022-11-02T01:19:14.150Z,89.93
2022-11-02T01:20:09.844Z,89.97
2022-11-02T01:21:04.955Z,90.03
2022-11-02T01:22:00.076Z,90.16
2022-11-02T01:22:56.532Z,90.11
2022-11-02T01:23:51.579Z,90.08
2022-11-02T01:24:46.659Z,90.05
2022-11-02T01:25:41.880Z,90.39
2022-11-02T01:26:37.515Z,90.53
2022-11-02T01:27:32.244Z,90.49
2022-11-02T01:28:28.134Z,90.55
2022-11-02T01:29:23.215Z,90.56
2022-11-02T01:30:18.568Z,90.25
2022-11-02T01:31:14.094Z,89.89
2022-11-02T01:32:10.127Z,89.92
2022-11-02T01:33:05.321Z,90.03
2022-11-02T01:34:00.452Z,89.89
2022-11-02T01:34:59.855Z,89.77
2022-11-02T01:35:55.052Z,89.94
2022-11-02T01:36:50.476Z,89.91
2022-11-02T01:37:45.436Z,90.00
2022-11-02T01:38:40.548Z,90.00
2022-11-02T01:39:35.604Z,89.85
2022-11-02T01:40:30.712Z,89.74
2022-11-02T01:41:25.813Z,89.77
2022-11-02T01:42:20.809Z,90.20
2022-11-02T01:43:15.869Z,90.22
2022-11-02T01:44:10.981Z,90.05
2022-11-02T01:45:06.082Z,90.16
2022-11-02T01:46:01.152Z,90.23
2022-11-02T01:46:56.319Z,90.02
2022-11-02T01:47:51.268Z,90.08
2022-11-02T01:48:46.469Z,90.20
2022-11-02T01:49:41.547Z,90.19
2022-11-02T01:50:36.747Z,90.11
2022-11-02T01:51:31.780Z,90.03
2022-11-02T01:52:26.847Z,89.84
2022-11-02T01:53:21.942Z,89.74
2022-11-02T01:54:16.926Z,89.67
2022-11-02T01:55:11.994Z,89.83
2022-11-02T01:56:07.105Z,89.94
2022-11-02T01:57:02.074Z,89.98
2022-11-02T01:57:57.159Z,90.01
2022-11-02T01:58:52.244Z,89.90
2022-11-02T01:59:47.311Z,89.84
2022-11-02T02:00:42.404Z,89.83
2022-11-02T02:01:37.643Z,89.90
2022-11-02T02:02:32.793Z,90.02
2022-11-02T02:03:27.586Z,90.26
2022-11-02T02:04:22.675Z,90.55
2022-11-02T02:05:17.740Z,90.49
2022-11-02T02:06:12.825Z,90.54
2022-11-02T02:07:07.923Z,90.68
2022-11-02T02:08:03.272Z,90.82
2022-11-02T02:08:57.991Z,91.02
2022-11-02T02:09:53.200Z,91.20
2022-11-02T02:10:49.149Z,91.27
2022-11-02T02:11:49.114Z,91.37
2022-11-02T02:12:44.503Z,91.53
2022-11-02T02:13:39.586Z,91.60
2022-11-02T02:14:35.247Z,91.63
2022-11-02T02:15:30.481Z,91.37
2022-11-02T02:16:28.787Z,91.11
2022-11-02T02:17:23.041Z,90.93
2022-11-02T02:18:17.069Z,90.82
2022-11-02T02:19:12.834Z,91.12
2022-11-02T02:20:08.027Z,91.00
2022-11-02T02:21:03.133Z,90.60
2022-11-02T02:21:58.927Z,90.39
2022-11-02T02:22:54.084Z,90.18
2022-11-02T02:23:49.854Z,89.90
2022-11-02T02:24:45.061Z,89.72
2022-11-02T02:25:40.312Z,89.63
2022-11-02T02:26:36.104Z,89.59
2022-11-02T02:27:31.221Z,89.58
2022-11-02T02:28:26.712Z,89.73
2022-11-02T02:29:22.761Z,89.87
2022-11-02T02:30:18.000Z,90.10
2022-11-02T02:31:13.789Z,90.32
2022-11-02T02:32:09.161Z,90.30
2022-11-02T02:33:04.279Z,90.31
2022-11-02T02:34:00.080Z,90.34
2022-11-02T02:34:55.318Z,90.37
2022-11-02T02:35:51.220Z,90.40
2022-11-02T02:37:41.768Z,90.54
2022-11-02T02:38:37.310Z,90.64
2022-11-02T02:39:32.528Z,90.67
2022-11-02T02:40:27.866Z,90.81
2022-11-02T02:41:23.937Z,90.92
2022-11-02T02:42:19.158Z,91.13
2022-11-02T02:43:15.152Z,91.35
2022-11-02T02:44:10.097Z,91.53
2022-11-02T02:45:05.489Z,91.64
2022-11-02T02:46:01.134Z,91.73
2022-11-02T02:46:56.503Z,91.84
2022-11-02T02:47:52.327Z,91.93
2022-11-02T02:48:47.253Z,91.82
2022-11-02T02:49:42.765Z,91.69
2022-11-02T02:50:38.429Z,91.58
2022-11-02T02:51:33.667Z,91.30
2022-11-02T02:52:28.836Z,91.09
2022-11-02T02:53:25.140Z,90.82
2022-11-02T02:54:20.397Z,90.58
2022-11-02T02:55:16.182Z,90.49
2022-11-02T02:56:11.419Z,90.43
2022-11-02T02:57:06.553Z,90.40
2022-11-02T02:58:02.796Z,90.46
2022-11-02T02:58:57.585Z,90.46
2022-11-02T02:59:53.488Z,90.46
2022-11-02T03:00:48.686Z,90.32
2022-11-02T03:01:44.017Z,90.28
2022-11-02T03:02:39.930Z,90.38
2022-11-02T03:03:34.927Z,90.38
2022-11-02T03:04:30.425Z,90.62
2022-11-02T03:05:26.363Z,90.47
2022-11-02T03:06:21.591Z,90.16
2022-11-02T03:07:17.375Z,89.87
2022-11-02T03:08:12.465Z,89.67
2022-11-02T03:09:07.561Z,89.49
2022-11-02T03:10:03.416Z,89.49
2022-11-02T03:10:58.515Z,89.53
2022-11-02T03:11:53.726Z,89.66
2022-11-02T03:12:48.815Z,89.77
2022-11-02T03:13:44.751Z,89.84
2022-11-02T03:14:39.990Z,89.96
2022-11-02T03:15:35.298Z,90.10
2022-11-02T03:16:31.480Z,90.20
2022-11-02T03:17:26.751Z,90.28
2022-11-02T03:18:22.533Z,90.31
2022-11-02T03:19:17.741Z,90.31
2022-11-02T03:20:12.885Z,90.43
2022-11-02T03:21:08.743Z,90.57
2022-11-02T03:22:03.857Z,90.50
2022-11-02T03:22:59.613Z,90.40
2022-11-02T03:23:54.829Z,90.25
2022-11-02T03:24:50.078Z,90.14
2022-11-02T03:25:46.004Z,90.06
2022-11-02T03:26:40.987Z,90.11
2022-11-02T03:27:36.188Z,90.11
2022-11-02T03:28:32.524Z,90.00
2022-11-02T03:29:27.732Z,90.00
2022-11-02T03:30:22.933Z,89.91
2022-11-02T03:31:18.137Z,89.88
2022-11-02T03:32:13.199Z,89.90
2022-11-02T03:33:08.426Z,89.83
2022-11-02T03:34:04.212Z,89.89
2022-11-02T03:34:59.403Z,90.01
2022-11-02T03:35:54.765Z,90.01
2022-11-02T03:36:50.013Z,89.94
2022-11-02T03:37:46.329Z,90.00
2022-11-02T03:38:41.652Z,90.06
2022-11-02T03:39:36.655Z,90.21
2022-11-02T03:40:35.904Z,90.20
2022-11-02T03:41:31.174Z,90.29
2022-11-02T03:42:26.298Z,90.33
2022-11-02T03:43:21.514Z,90.10
2022-11-02T03:44:16.581Z,89.99
2022-11-02T03:45:11.660Z,89.97
2022-11-02T03:46:06.782Z,89.85
2022-11-02T03:47:01.870Z,89.77
2022-11-02T03:47:56.843Z,89.83
2022-11-02T03:48:51.914Z,89.89
2022-11-02T03:49:47.032Z,90.07
2022-11-02T03:50:42.137Z,90.12
2022-11-02T03:51:37.118Z,90.18
2022-11-02T03:52:32.228Z,90.24
2022-11-02T03:53:27.320Z,90.33
2022-11-02T03:54:22.375Z,90.42
2022-11-02T03:55:17.455Z,90.46
2022-11-02T03:56:12.685Z,90.55
2022-11-02T03:57:07.624Z,90.75
2022-11-02T03:58:02.922Z,90.92
2022-11-02T03:58:57.862Z,90.92
2022-11-02T03:59:53.255Z,90.87
2022-11-02T04:00:48.499Z,90.74
2022-11-02T04:01:43.818Z,90.68
2022-11-02T04:02:38.882Z,90.70
2022-11-02T04:03:33.899Z,90.81
2022-11-02T04:04:28.986Z,90.81
2022-11-02T04:05:24.217Z,90.78
2022-11-02T04:06:19.316Z,90.70
2022-11-02T04:07:14.409Z,90.57
2022-11-02T04:08:09.609Z,90.49
2022-11-02T04:09:04.811Z,90.58
2022-11-02T04:09:59.930Z,90.63
2022-11-02T04:10:55.301Z,90.54
2022-11-02T04:11:50.371Z,90.39
2022-11-02T04:12:45.458Z,90.31
2022-11-02T04:13:40.596Z,90.36
2022-11-02T04:14:35.698Z,90.39
2022-11-02T04:15:30.889Z,90.39
2022-11-02T04:16:28.354Z,90.48
2022-11-02T04:17:23.465Z,90.59
2022-11-02T04:18:18.644Z,90.76
2022-11-02T04:19:13.836Z,90.94
2022-11-02T04:20:09.111Z,91.19
2022-11-02T04:21:04.611Z,91.30
2022-11-02T04:21:59.444Z,91.38
2022-11-02T04:22:54.512Z,91.45
2022-11-02T04:23:49.577Z,91.57
2022-11-02T04:24:44.658Z,91.67
2022-11-02T04:25:39.723Z,91.78
2022-11-02T04:26:35.007Z,91.85
2022-11-02T04:27:29.919Z,91.86
2022-11-02T04:28:24.990Z,91.85
2022-11-02T04:29:20.539Z,91.86
2022-11-02T04:30:15.592Z,91.83
2022-11-02T04:31:10.674Z,91.83
2022-11-02T04:32:05.823Z,91.90
2022-11-02T04:33:00.877Z,91.86
2022-11-02T04:33:55.933Z,91.72
2022-11-02T04:34:51.036Z,91.57
2022-11-02T04:35:46.018Z,91.55
2022-11-02T04:36:41.134Z,91.40
2022-11-02T04:37:36.199Z,91.32
2022-11-02T04:38:31.296Z,91.25
2022-11-02T04:39:26.397Z,91.21
2022-11-02T04:40:21.769Z,91.20
2022-11-02T04:41:16.573Z,91.24
2022-11-02T04:42:11.687Z,91.26
2022-11-02T04:43:06.796Z,91.29
2022-11-02T04:44:04.469Z,91.28
2022-11-02T04:44:59.542Z,91.29
2022-11-02T04:45:54.697Z,91.32
2022-11-02T04:46:49.705Z,91.33
2022-11-02T04:47:44.832Z,91.37
2022-11-02T04:48:39.918Z,91.28
2022-11-02T04:49:35.017Z,91.17
2022-11-02T04:50:30.417Z,91.10
2022-11-02T04:51:25.160Z,90.98
2022-11-02T04:52:20.224Z,90.94
2022-11-02T04:53:15.263Z,90.89
2022-11-02T04:54:10.392Z,90.89
2022-11-02T04:55:05.393Z,90.89
2022-11-02T04:56:04.814Z,90.84
2022-11-02T04:56:59.892Z,90.81
2022-11-02T04:57:55.038Z,90.80
2022-11-02T04:58:50.278Z,90.75
2022-11-02T04:59:45.287Z,90.74
2022-11-02T05:00:40.475Z,90.86
2022-11-02T05:01:35.585Z,90.89
2022-11-02T05:02:30.642Z,90.86
2022-11-02T05:03:25.527Z,90.78
2022-11-02T05:04:20.639Z,90.82
2022-11-02T05:05:15.969Z,90.79
2022-11-02T05:06:10.697Z,90.78
2022-11-02T05:07:05.675Z,90.88
2022-11-02T05:08:00.801Z,90.96
2022-11-02T05:08:55.854Z,91.14
2022-11-02T05:09:51.656Z,91.23
2022-11-02T05:10:46.865Z,91.29
2022-11-02T05:11:42.632Z,91.35
2022-11-02T05:12:37.834Z,91.47
2022-11-02T05:13:33.092Z,91.56
2022-11-02T05:14:28.907Z,91.65
2022-11-02T05:15:24.180Z,91.64
2022-11-02T05:16:19.257Z,91.50
2022-11-02T05:17:15.614Z,91.56
2022-11-02T05:18:14.802Z,91.54
2022-11-02T05:19:10.024Z,91.78
2022-11-02T05:20:02.046Z,91.75
2022-11-02T05:20:57.231Z,91.65
2022-11-02T05:21:52.931Z,91.53
2022-11-02T05:22:48.198Z,91.23
2022-11-02T05:23:44.107Z,90.91
2022-11-02T05:24:39.285Z,90.56
2022-11-02T05:25:34.534Z,90.72
2022-11-02T05:26:30.337Z,90.76
2022-11-02T05:27:25.580Z,90.67
2022-11-02T05:28:20.938Z,90.56
2022-11-02T05:29:17.038Z,90.41
2022-11-02T05:30:12.377Z,90.36
2022-11-02T05:31:08.052Z,90.29
2022-11-02T05:32:03.144Z,90.16
2022-11-02T05:32:58.517Z,89.97
2022-11-02T05:33:54.221Z,89.79
2022-11-02T05:34:49.539Z,89.77
2022-11-02T05:35:45.322Z,89.78
2022-11-02T05:36:40.529Z,89.86
2022-11-02T05:37:35.832Z,89.93
2022-11-02T05:38:31.568Z,90.02
2022-11-02T05:39:26.737Z,90.09
2022-11-02T05:40:21.852Z,90.19
2022-11-02T05:41:18.361Z,90.30
2022-11-02T05:42:13.662Z,90.33
2022-11-02T05:43:09.082Z,90.38
2022-11-02T05:44:03.877Z,90.60
2022-11-02T05:44:59.094Z,90.53
2022-11-02T05:45:54.160Z,90.70
2022-11-02T05:46:49.180Z,90.80
2022-11-02T05:47:44.492Z,90.83
2022-11-02T05:48:39.338Z,90.72
2022-11-02T05:49:34.307Z,90.75
2022-11-02T05:50:29.407Z,90.72
2022-11-02T05:51:24.408Z,90.64
2022-11-02T05:52:19.661Z,90.62
2022-11-02T05:53:14.470Z,90.54
2022-11-02T05:54:09.574Z,90.41
2022-11-02T05:55:04.786Z,90.30
2022-11-02T05:55:59.764Z,90.23
2022-11-02T05:56:58.206Z,90.18
2022-11-02T05:57:53.625Z,90.00
2022-11-02T05:58:48.346Z,89.86
2022-11-02T05:59:46.676Z,89.83
2022-11-02T06:00:39.454Z,89.90
2022-11-02T06:01:33.679Z,90.03
2022-11-02T06:02:28.560Z,90.23
2022-11-02T06:03:24.015Z,90.37
2022-11-02T06:04:18.796Z,90.60
2022-11-02T06:05:13.944Z,90.69
2022-11-02T06:06:08.971Z,90.78
2022-11-02T06:07:04.095Z,90.86
2022-11-02T06:07:59.105Z,91.02
2022-11-02T06:08:54.561Z,90.96
2022-11-02T06:09:49.618Z,90.91
2022-11-02T06:10:44.721Z,90.85
2022-11-02T06:11:39.776Z,90.82
2022-11-02T06:12:34.877Z,90.78
2022-11-02T06:13:29.868Z,90.90
2022-11-02T06:14:28.451Z,90.80
2022-11-02T06:15:23.508Z,90.77
2022-11-02T06:16:22.704Z,90.77
2022-11-02T06:17:13.557Z,90.72
2022-11-02T06:18:08.577Z,90.72
2022-11-02T06:19:03.791Z,90.88
2022-11-02T06:19:58.693Z,90.85
2022-11-02T06:20:53.690Z,90.77
2022-11-02T06:21:48.813Z,90.69
2022-11-02T06:22:43.779Z,90.63
2022-11-02T06:23:38.803Z,90.59
2022-11-02T06:24:33.833Z,90.56
2022-11-02T06:25:28.834Z,90.43
2022-11-02T06:26:23.875Z,90.29
2022-11-02T06:27:18.996Z,90.03
2022-11-02T06:28:14.072Z,89.85
2022-11-02T06:29:09.071Z,89.66
2022-11-02T06:30:04.241Z,89.54
2022-11-02T06:30:59.305Z,89.61
2022-11-02T06:31:54.281Z,89.61
2022-11-02T06:32:49.467Z,89.42
2022-11-02T06:33:44.479Z,89.29
2022-11-02T06:34:39.580Z,89.21
2022-11-02T06:35:34.697Z,89.23
2022-11-02T06:36:29.797Z,89.26
2022-11-02T06:37:24.874Z,89.38
2022-11-02T06:38:19.880Z,89.53
2022-11-02T06:39:14.977Z,89.68
2022-11-02T06:40:10.298Z,89.89
2022-11-02T06:41:05.683Z,89.95
2022-11-02T06:42:01.010Z,89.91
2022-11-02T06:43:14.864Z,90.02
2022-11-02T06:43:52.732Z,90.07
2022-11-02T06:44:47.174Z,90.08
2022-11-02T06:45:42.625Z,89.99
2022-11-02T06:46:38.024Z,89.88
2022-11-02T06:47:33.123Z,89.89
2022-11-02T06:48:34.360Z,89.95
2022-11-02T06:49:24.328Z,89.94
2022-11-02T06:50:18.381Z,89.66
2022-11-02T06:51:13.534Z,89.71
2022-11-02T06:52:08.615Z,89.91
2022-11-02T06:53:03.873Z,90.64
2022-11-02T06:54:01.250Z,91.04
2022-11-02T06:54:56.030Z,91.37
2022-11-02T06:55:50.532Z,91.36
2022-11-02T06:56:46.219Z,91.13
2022-11-02T06:57:41.514Z,90.98
2022-11-02T06:58:36.978Z,90.68
2022-11-02T06:59:32.392Z,90.38
2022-11-02T07:00:28.283Z,89.83
2022-11-02T07:01:23.618Z,89.47
2022-11-02T07:02:18.865Z,89.17
2022-11-02T07:03:14.149Z,88.98
2022-11-02T07:04:09.574Z,88.80
2022-11-02T07:05:05.189Z,88.72
2022-11-02T07:06:00.389Z,88.62
2022-11-02T07:06:56.905Z,88.60
2022-11-02T07:07:52.318Z,88.51
2022-11-02T07:08:47.723Z,88.34
2022-11-02T07:09:43.234Z,88.19
2022-11-02T07:10:38.675Z,88.04
2022-11-02T07:11:34.062Z,87.96
2022-11-02T07:12:30.592Z,87.83
2022-11-02T07:13:26.003Z,87.80
2022-11-02T07:14:21.429Z,87.70
2022-11-02T07:15:16.876Z,87.49
2022-11-02T07:16:14.381Z,87.54
2022-11-02T07:17:09.563Z,87.57
2022-11-02T07:18:04.992Z,88.10
2022-11-02T07:19:00.399Z,87.84
2022-11-02T07:19:56.041Z,86.31
2022-11-02T07:20:51.405Z,86.00
2022-11-02T07:21:47.885Z,84.78
2022-11-02T07:22:42.290Z,83.75
2022-11-02T07:23:37.746Z,82.85
2022-11-02T07:24:33.341Z,81.88
2022-11-02T07:25:28.851Z,81.04
2022-11-02T07:26:24.271Z,79.91
2022-11-02T07:27:19.950Z,79.27
2022-11-02T07:28:15.450Z,78.77
2022-11-02T07:29:10.938Z,78.48
2022-11-02T07:30:05.963Z,78.23
2022-11-02T07:31:01.007Z,78.96
2022-11-02T07:31:56.094Z,78.41
2022-11-02T07:32:51.317Z,77.81
2022-11-02T07:33:46.406Z,77.47
2022-11-02T07:34:41.444Z,76.71
2022-11-02T07:35:36.454Z,77.55
2022-11-02T07:36:31.644Z,77.76
2022-11-02T07:37:26.611Z,77.65
2022-11-02T07:38:21.704Z,77.55
2022-11-02T07:39:18.194Z,76.81
2022-11-02T07:40:13.221Z,76.27
2022-11-02T07:41:08.242Z,76.34
2022-11-02T07:42:03.574Z,75.75
2022-11-02T07:42:58.873Z,75.45
2022-11-02T07:43:54.299Z,74.89
2022-11-02T07:44:49.913Z,74.60
2022-11-02T07:45:45.362Z,74.49
2022-11-02T07:46:40.759Z,74.41
2022-11-02T07:47:36.648Z,73.97
2022-11-02T07:48:31.818Z,74.51
2022-11-02T07:49:27.388Z,75.19
2022-11-02T07:50:22.712Z,75.51
2022-11-02T07:51:18.193Z,75.97
2022-11-02T07:52:13.695Z,75.73
2022-11-02T07:53:09.108Z,76.67
2022-11-02T07:54:04.532Z,76.60
2022-11-02T07:55:00.007Z,76.25
2022-11-02T07:55:55.046Z,76.50
2022-11-02T07:56:50.105Z,77.01
2022-11-02T07:57:45.215Z,76.82
2022-11-02T07:58:40.235Z,77.47
2022-11-02T07:59:35.392Z,77.61
2022-11-02T08:00:30.485Z,78.50
2022-11-02T08:01:25.565Z,78.20
2022-11-02T08:02:23.187Z,77.73
2022-11-02T08:03:18.494Z,77.15
2022-11-02T08:04:13.184Z,75.82
2022-11-02T08:05:08.190Z,75.78
2022-11-02T08:06:03.193Z,76.77
2022-11-02T08:06:58.247Z,77.48
2022-11-02T08:07:53.290Z,79.02
2022-11-02T08:08:48.342Z,78.03
2022-11-02T08:09:43.406Z,77.23
2022-11-02T08:10:40.464Z,76.81
2022-11-02T08:11:33.451Z,75.96
2022-11-02T08:12:28.555Z,75.88
2022-11-02T08:13:23.563Z,76.17
2022-11-02T08:14:18.921Z,76.01
2022-11-02T08:15:14.281Z,75.21
2022-11-02T08:16:09.689Z,75.10
2022-11-02T08:17:05.154Z,75.40
2022-11-02T08:18:00.588Z,75.43
2022-11-02T08:18:56.197Z,75.15
2022-11-02T08:19:51.815Z,75.22
2022-11-02T08:20:47.092Z,74.46
2022-11-02T08:21:42.526Z,74.45
2022-11-02T08:22:37.960Z,74.64
2022-11-02T08:23:33.383Z,75.08
2022-11-02T08:24:28.822Z,74.87
2022-11-02T08:25:24.491Z,74.46
2022-11-02T08:26:19.987Z,74.37
2022-11-02T08:27:15.487Z,74.11
2022-11-02T08:28:11.117Z,72.83
2022-11-02T08:29:06.574Z,71.81
2022-11-02T08:30:02.086Z,71.12
2022-11-02T08:30:57.522Z,70.87
2022-11-02T08:31:52.967Z,71.56
2022-11-02T08:32:51.504Z,71.10
2022-11-02T08:33:45.026Z,71.33
2022-11-02T08:34:39.128Z,71.80
2022-11-02T08:35:34.448Z,71.16
2022-11-02T08:36:29.382Z,70.98
2022-11-02T08:37:24.261Z,71.36
2022-11-02T08:38:19.291Z,71.98
2022-11-02T08:39:18.599Z,72.41
2022-11-02T08:40:09.455Z,72.54
2022-11-02T08:41:05.890Z,74.27
2022-11-02T08:42:01.093Z,75.34
2022-11-02T08:42:56.171Z,76.18
2022-11-02T08:43:51.167Z,77.61
2022-11-02T08:44:46.820Z,78.48
2022-11-02T08:46:13.383Z,79.02
2022-11-02T08:46:38.636Z,79.87
2022-11-02T08:47:33.065Z,80.42
2022-11-02T08:48:28.711Z,80.85
2022-11-02T08:49:23.902Z,81.46
2022-11-02T08:50:19.395Z,81.67
2022-11-02T08:51:14.955Z,81.87
2022-11-02T08:52:10.424Z,82.35
2022-11-02T08:53:06.033Z,80.98
2022-11-02T08:54:01.394Z,80.87
2022-11-02T08:54:56.956Z,80.97
2022-11-02T08:55:52.403Z,81.52
2022-11-02T08:56:48.080Z,82.09
2022-11-02T08:57:43.126Z,82.24
2022-11-02T08:58:38.171Z,83.09
2022-11-02T08:59:33.264Z,83.37
2022-11-02T09:00:28.336Z,83.55
2022-11-02T09:01:23.457Z,83.71
2022-11-02T09:02:18.489Z,84.09
2022-11-02T09:03:13.410Z,84.49
2022-11-02T09:04:10.594Z,83.48
2022-11-02T09:05:05.696Z,81.53
2022-11-02T09:06:00.792Z,78.86
2022-11-02T09:06:55.955Z,77.56
2022-11-02T09:07:50.999Z,77.16
2022-11-02T09:08:46.071Z,77.00
2022-11-02T09:09:41.162Z,76.36
2022-11-02T09:10:36.287Z,76.19
2022-11-02T09:11:31.357Z,76.17
2022-11-02T09:12:26.503Z,76.59
2022-11-02T09:13:21.440Z,77.13
2022-11-02T09:14:16.644Z,78.03
2022-11-02T09:15:11.547Z,77.61
2022-11-02T09:16:06.609Z,78.50
2022-11-02T09:17:01.892Z,79.35
2022-11-02T09:17:57.672Z,78.58
2022-11-02T09:18:53.169Z,78.50
2022-11-02T09:19:48.683Z,79.17
2022-11-02T09:20:44.171Z,79.03
2022-11-02T09:21:39.648Z,78.72
2022-11-02T09:22:35.473Z,78.70
2022-11-02T09:23:30.816Z,78.69
2022-11-02T09:24:26.276Z,78.76
2022-11-02T09:25:21.899Z,78.51
2022-11-02T09:26:17.358Z,79.16
2022-11-02T09:27:12.349Z,79.41
2022-11-02T09:28:07.766Z,80.06
2022-11-02T09:29:02.497Z,80.31
2022-11-02T09:29:57.590Z,80.40
2022-11-02T09:30:52.648Z,80.94
2022-11-02T09:31:48.428Z,81.19
2022-11-02T09:32:42.826Z,81.17
2022-11-02T09:33:39.865Z,80.56
2022-11-02T09:34:34.672Z,79.44
2022-11-02T09:35:29.721Z,79.34
2022-11-02T09:36:24.783Z,79.06
2022-11-02T09:37:19.861Z,78.20
2022-11-02T09:38:15.044Z,77.66
2022-11-02T09:39:09.976Z,77.81
2022-11-02T09:40:05.094Z,77.84
2022-11-02T09:41:00.990Z,77.89
2022-11-02T09:41:56.451Z,78.31
2022-11-02T09:42:51.922Z,78.34
2022-11-02T09:43:47.532Z,78.76
2022-11-02T09:44:42.852Z,79.15
2022-11-02T09:45:38.312Z,79.18
2022-11-02T09:46:33.906Z,79.49
2022-11-02T09:48:28.653Z,79.72
2022-11-02T09:49:20.139Z,79.61
2022-11-02T09:50:15.251Z,79.60
2022-11-02T09:51:10.275Z,79.63
2022-11-02T09:52:05.434Z,79.24
2022-11-02T09:53:00.431Z,78.99
2022-11-02T09:53:55.535Z,78.82
2022-11-02T09:54:50.701Z,78.78
2022-11-02T09:55:45.724Z,78.64
2022-11-02T09:56:42.944Z,78.62
2022-11-02T09:57:38.005Z,77.20
2022-11-02T09:58:33.100Z,77.09
2022-11-02T09:59:28.301Z,76.52
2022-11-02T10:00:23.357Z,76.77
2022-11-02T10:01:18.433Z,76.90
2022-11-02T10:02:13.630Z,76.44
2022-11-02T10:03:08.804Z,76.21
2022-11-02T10:04:04.187Z,75.56
2022-11-02T10:04:59.658Z,75.25
2022-11-02T10:05:55.185Z,74.86
2022-11-02T10:06:50.794Z,74.44
2022-11-02T10:07:46.121Z,74.06
2022-11-02T10:08:41.617Z,71.26
2022-11-02T10:09:37.429Z,71.38
2022-11-02T10:10:32.754Z,71.71
2022-11-02T10:11:28.179Z,71.05
2022-11-02T10:12:23.553Z,70.57
2022-11-02T10:13:19.133Z,70.07
2022-11-02T10:14:14.414Z,70.08
2022-11-02T10:15:11.214Z,70.02
2022-11-02T10:16:06.694Z,69.89
2022-11-02T10:17:02.201Z,70.10
2022-11-02T10:17:57.646Z,70.22
2022-11-02T10:18:53.231Z,69.46
2022-11-02T10:19:50.951Z,68.61
2022-11-02T10:20:46.290Z,67.42
2022-11-02T10:21:41.802Z,66.93
2022-11-02T10:22:37.423Z,66.62
2022-11-02T10:23:32.880Z,65.54
2022-11-02T10:24:28.430Z,65.43
2022-11-02T10:25:23.810Z,65.50
2022-11-02T10:26:19.277Z,65.78
2022-11-02T10:27:14.886Z,65.84
2022-11-02T10:28:10.440Z,66.21
2022-11-02T10:29:06.026Z,66.45
2022-11-02T10:30:01.652Z,66.70
2022-11-02T10:30:57.013Z,66.23
2022-11-02T10:31:52.505Z,66.01
2022-11-02T10:32:48.126Z,65.90
2022-11-02T10:33:43.608Z,65.82
2022-11-02T10:34:39.108Z,65.95
2022-11-02T10:35:51.030Z,65.58
2022-11-02T10:36:31.278Z,65.91
2022-11-02T10:37:25.809Z,65.60
2022-11-02T10:38:21.423Z,65.77
2022-11-02T10:39:16.929Z,65.06
2022-11-02T10:40:12.543Z,64.72
2022-11-02T10:41:08.018Z,64.12
2022-11-02T10:42:06.513Z,64.12
2022-11-02T10:43:01.995Z,64.24
2022-11-02T10:43:57.464Z,64.40
2022-11-02T10:44:52.970Z,64.07
2022-11-02T10:45:48.616Z,64.60
2022-11-02T10:46:43.832Z,65.00
2022-11-02T10:47:38.913Z,65.40
2022-11-02T10:48:33.975Z,65.04
2022-11-02T10:49:29.282Z,64.21
2022-11-02T10:50:24.187Z,63.63
2022-11-02T10:51:19.555Z,63.51
2022-11-02T10:52:14.257Z,63.83
2022-11-02T10:53:35.129Z,64.25
2022-11-02T10:54:59.470Z,64.80
2022-11-02T10:55:54.537Z,65.32
2022-11-02T10:56:49.958Z,65.21
2022-11-02T10:57:45.418Z,64.46
2022-11-02T10:58:40.886Z,64.43
2022-11-02T10:59:36.393Z,64.46
2022-11-02T11:00:31.933Z,64.24
2022-11-02T11:01:27.826Z,64.45
2022-11-02T11:02:22.406Z,64.88
2022-11-02T11:03:17.468Z,66.27
2022-11-02T11:04:12.557Z,68.26
2022-11-02T11:05:08.862Z,68.66
2022-11-02T11:06:03.932Z,68.99
2022-11-02T11:06:59.303Z,69.60
2022-11-02T11:07:54.126Z,70.02
2022-11-02T11:08:49.177Z,70.52
2022-11-02T11:09:46.650Z,70.81
2022-11-02T11:10:39.295Z,70.45
2022-11-02T11:11:34.444Z,70.77
2022-11-02T11:12:29.567Z,70.59
2022-11-02T11:16:14.739Z,71.52
2022-11-02T11:19:50.958Z,71.63
2022-11-02T11:20:45.037Z,71.90
2022-11-02T11:21:40.162Z,71.88
2022-11-02T11:22:35.115Z,72.15
2022-11-02T11:23:30.187Z,72.47
2022-11-02T11:24:25.277Z,72.65
2022-11-02T11:25:25.862Z,72.67
2022-11-02T11:26:16.407Z,72.46
2022-11-02T11:27:10.489Z,72.49
2022-11-02T11:28:05.651Z,72.76
2022-11-02T11:29:00.592Z,72.59
2022-11-02T11:29:55.735Z,72.32
2022-11-02T11:31:06.122Z,72.24
2022-11-02T11:31:47.301Z,72.54
2022-11-02T11:32:41.932Z,72.61
2022-11-02T11:33:37.376Z,72.50
2022-11-02T11:34:33.002Z,72.26
2022-11-02T11:35:28.700Z,72.12
2022-11-02T11:37:19.466Z,72.13
2022-11-02T11:38:14.807Z,72.55
2022-11-02T11:39:09.643Z,72.54
2022-11-02T11:40:04.736Z,72.54
2022-11-02T11:40:59.828Z,72.53
2022-11-02T11:41:54.916Z,72.85
2022-11-02T11:42:49.987Z,72.46
2022-11-02T11:43:45.051Z,72.39
2022-11-02T11:44:40.302Z,72.44
2022-11-02T11:45:35.224Z,72.48
2022-11-02T11:46:30.366Z,72.42
2022-11-02T11:47:25.449Z,72.08
2022-11-02T11:48:20.693Z,71.57
2022-11-02T11:49:15.721Z,71.53
2022-11-02T11:50:15.297Z,71.35
2022-11-02T11:51:08.864Z,71.43
2022-11-02T11:52:03.295Z,71.56
2022-11-02T11:52:58.442Z,71.47
2022-11-02T11:53:55.927Z,71.34
2022-11-02T11:54:49.599Z,71.39
2022-11-02T11:55:44.835Z,71.52
2022-11-02T11:56:40.368Z,72.18
2022-11-02T11:58:31.441Z,72.22
2022-11-02T11:59:27.116Z,72.39
2022-11-02T12:00:22.651Z,72.51
2022-11-02T12:01:18.116Z,72.66
2022-11-02T12:02:15.068Z,72.54
2022-11-02T12:03:09.194Z,72.26